sensor_id;sensor_type;location;lat;lon;timestamp;pressure;altitude;pressure_sealevel;temperature
76381;BMP280;65202;52.520;10.528;2023-04-03T00:01:15;102628.56;;;2.76
76381;BMP280;65202;52.520;10.528;2023-04-03T00:03:42;102631.59;;;2.74
76381;BMP280;65202;52.520;10.528;2023-04-03T00:06:10;102631.81;;;2.84
76381;BMP280;65202;52.520;10.528;2023-04-03T00:08:39;102635.34;;;2.86
76381;BMP280;65202;52.520;10.528;2023-04-03T00:11:08;102642.72;;;2.62
76381;BMP280;65202;52.520;10.528;2023-04-03T00:13:36;102636.09;;;2.54
76381;BMP280;65202;52.520;10.528;2023-04-03T00:16:04;102645.34;;;2.63
76381;BMP280;65202;52.520;10.528;2023-04-03T00:18:32;102638.47;;;2.61
76381;BMP280;65202;52.520;10.528;2023-04-03T00:20:59;102639.44;;;2.70
76381;BMP280;65202;52.520;10.528;2023-04-03T00:23:27;102638.53;;;2.23
76381;BMP280;65202;52.520;10.528;2023-04-03T00:25:54;102639.69;;;2.11
76381;BMP280;65202;52.520;10.528;2023-04-03T00:28:22;102648.63;;;1.80
76381;BMP280;65202;52.520;10.528;2023-04-03T00:30:50;102647.88;;;1.88
76381;BMP280;65202;52.520;10.528;2023-04-03T00:33:18;102643.34;;;1.77
76381;BMP280;65202;52.520;10.528;2023-04-03T00:35:48;102643.66;;;1.80
76381;BMP280;65202;52.520;10.528;2023-04-03T00:38:17;102647.31;;;1.90
76381;BMP280;65202;52.520;10.528;2023-04-03T00:40:47;102646.59;;;1.91
76381;BMP280;65202;52.520;10.528;2023-04-03T00:43:22;102657.97;;;1.60
76381;BMP280;65202;52.520;10.528;2023-04-03T00:45:53;102662.72;;;1.29
76381;BMP280;65202;52.520;10.528;2023-04-03T00:48:42;102663.03;;;1.03
76381;BMP280;65202;52.520;10.528;2023-04-03T00:51:19;102652.66;;;1.57
76381;BMP280;65202;52.520;10.528;2023-04-03T00:53:54;102666.13;;;1.23
76381;BMP280;65202;52.520;10.528;2023-04-03T00:56:27;102662.94;;;1.24
76381;BMP280;65202;52.520;10.528;2023-04-03T00:59:08;102665.84;;;1.65
76381;BMP280;65202;52.520;10.528;2023-04-03T01:01:38;102666.53;;;1.41
76381;BMP280;65202;52.520;10.528;2023-04-03T01:04:30;102678.06;;;1.27
76381;BMP280;65202;52.520;10.528;2023-04-03T01:07:04;102680.63;;;1.13
76381;BMP280;65202;52.520;10.528;2023-04-03T01:09:35;102688.34;;;1.16
76381;BMP280;65202;52.520;10.528;2023-04-03T01:12:24;102676.91;;;1.17
76381;BMP280;65202;52.520;10.528;2023-04-03T01:14:59;102683.00;;;1.27
76381;BMP280;65202;52.520;10.528;2023-04-03T01:17:41;102689.63;;;1.13
76381;BMP280;65202;52.520;10.528;2023-04-03T01:25:42;102686.66;;;1.01
76381;BMP280;65202;52.520;10.528;2023-04-03T01:28:31;102694.38;;;1.11
76381;BMP280;65202;52.520;10.528;2023-04-03T01:33:46;102693.13;;;0.71
76381;BMP280;65202;52.520;10.528;2023-04-03T01:36:17;102690.88;;;1.02
76381;BMP280;65202;52.520;10.528;2023-04-03T01:38:47;102686.88;;;1.32
76381;BMP280;65202;52.520;10.528;2023-04-03T01:41:16;102696.81;;;0.61
76381;BMP280;65202;52.520;10.528;2023-04-03T01:43:43;102701.19;;;0.84
76381;BMP280;65202;52.520;10.528;2023-04-03T01:46:11;102699.03;;;0.94
76381;BMP280;65202;52.520;10.528;2023-04-03T01:48:38;102686.72;;;0.87
76381;BMP280;65202;52.520;10.528;2023-04-03T01:51:05;102686.53;;;0.86
76381;BMP280;65202;52.520;10.528;2023-04-03T01:53:32;102681.13;;;0.81
76381;BMP280;65202;52.520;10.528;2023-04-03T01:56:00;102692.34;;;0.86
76381;BMP280;65202;52.520;10.528;2023-04-03T01:58:27;102686.06;;;0.67
76381;BMP280;65202;52.520;10.528;2023-04-03T02:00:54;102695.22;;;0.68
76381;BMP280;65202;52.520;10.528;2023-04-03T02:03:21;102696.81;;;0.68
76381;BMP280;65202;52.520;10.528;2023-04-03T02:05:49;102694.94;;;0.31
76381;BMP280;65202;52.520;10.528;2023-04-03T02:08:16;102706.34;;;0.58
76381;BMP280;65202;52.520;10.528;2023-04-03T02:10:48;102696.63;;;0.73
76381;BMP280;65202;52.520;10.528;2023-04-03T02:13:17;102698.75;;;0.70
76381;BMP280;65202;52.520;10.528;2023-04-03T02:15:45;102701.22;;;0.70
76381;BMP280;65202;52.520;10.528;2023-04-03T02:18:13;102704.47;;;0.07
76381;BMP280;65202;52.520;10.528;2023-04-03T02:20:40;102708.50;;;0.27
76381;BMP280;65202;52.520;10.528;2023-04-03T02:23:07;102704.41;;;0.56
76381;BMP280;65202;52.520;10.528;2023-04-03T02:25:35;102701.34;;;0.93
76381;BMP280;65202;52.520;10.528;2023-04-03T02:28:05;102702.25;;;0.79
76381;BMP280;65202;52.520;10.528;2023-04-03T02:30:32;102715.72;;;0.33
76381;BMP280;65202;52.520;10.528;2023-04-03T02:33:00;102710.78;;;0.26
76381;BMP280;65202;52.520;10.528;2023-04-03T02:35:27;102713.94;;;0.39
76381;BMP280;65202;52.520;10.528;2023-04-03T02:37:54;102710.19;;;0.77
76381;BMP280;65202;52.520;10.528;2023-04-03T02:40:22;102717.47;;;0.41
76381;BMP280;65202;52.520;10.528;2023-04-03T02:42:49;102718.88;;;0.53
76381;BMP280;65202;52.520;10.528;2023-04-03T02:45:16;102714.25;;;0.76
76381;BMP280;65202;52.520;10.528;2023-04-03T02:47:43;102717.47;;;0.41
76381;BMP280;65202;52.520;10.528;2023-04-03T02:50:11;102725.19;;;0.51
76381;BMP280;65202;52.520;10.528;2023-04-03T02:52:38;102727.66;;;0.71
76381;BMP280;65202;52.520;10.528;2023-04-03T02:55:05;102724.53;;;0.38
76381;BMP280;65202;52.520;10.528;2023-04-03T02:57:33;102727.69;;;0.30
76381;BMP280;65202;52.520;10.528;2023-04-03T03:00:01;102733.16;;;0.34
76381;BMP280;65202;52.520;10.528;2023-04-03T03:02:28;102739.84;;;0.35
76381;BMP280;65202;52.520;10.528;2023-04-03T03:04:55;102729.25;;;0.22
76381;BMP280;65202;52.520;10.528;2023-04-03T03:07:23;102720.09;;;0.49
76381;BMP280;65202;52.520;10.528;2023-04-03T03:09:50;102711.03;;;0.84
76381;BMP280;65202;52.520;10.528;2023-04-03T03:12:17;102717.47;;;0.34
76381;BMP280;65202;52.520;10.528;2023-04-03T03:14:48;102726.66;;;0.14
76381;BMP280;65202;52.520;10.528;2023-04-03T03:17:16;102730.16;;;0.23
76381;BMP280;65202;52.520;10.528;2023-04-03T03:19:43;102722.22;;;0.32
76381;BMP280;65202;52.520;10.528;2023-04-03T03:22:12;102722.94;;;0.03
76381;BMP280;65202;52.520;10.528;2023-04-03T03:24:39;102729.78;;;0.06
76381;BMP280;65202;52.520;10.528;2023-04-03T03:27:06;102734.03;;;0.28
76381;BMP280;65202;52.520;10.528;2023-04-03T03:29:34;102740.16;;;0.17
76381;BMP280;65202;52.520;10.528;2023-04-03T03:32:01;102729.78;;;0.34
76381;BMP280;65202;52.520;10.528;2023-04-03T03:34:28;102739.31;;;0.17
76381;BMP280;65202;52.520;10.528;2023-04-03T03:36:57;102740.69;;;-0.13
76381;BMP280;65202;52.520;10.528;2023-04-03T03:39:24;102739.66;;;0.13
76381;BMP280;65202;52.520;10.528;2023-04-03T03:41:52;102734.34;;;-0.04
76381;BMP280;65202;52.520;10.528;2023-04-03T03:44:20;102741.06;;;0.25
76381;BMP280;65202;52.520;10.528;2023-04-03T03:46:48;102732.63;;;0.23
76381;BMP280;65202;52.520;10.528;2023-04-03T03:49:15;102738.59;;;0.11
76381;BMP280;65202;52.520;10.528;2023-04-03T03:51:42;102733.50;;;0.44
76381;BMP280;65202;52.520;10.528;2023-04-03T03:54:09;102735.75;;;0.29
76381;BMP280;65202;52.520;10.528;2023-04-03T03:56:37;102736.28;;;0.12
76381;BMP280;65202;52.520;10.528;2023-04-03T03:59:04;102733.44;;;0.72
76381;BMP280;65202;52.520;10.528;2023-04-03T04:01:32;102729.41;;;0.59
76381;BMP280;65202;52.520;10.528;2023-04-03T04:04:00;102737.84;;;0.67
76381;BMP280;65202;52.520;10.528;2023-04-03T04:06:27;102733.28;;;0.63
76381;BMP280;65202;52.520;10.528;2023-04-03T04:08:54;102725.13;;;0.78
76381;BMP280;65202;52.520;10.528;2023-04-03T04:11:21;102730.50;;;0.40
76381;BMP280;65202;52.520;10.528;2023-04-03T04:13:49;102724.06;;;0.90
76381;BMP280;65202;52.520;10.528;2023-04-03T04:16:16;102738.91;;;0.49
76381;BMP280;65202;52.520;10.528;2023-04-03T04:18:43;102743.53;;;0.25
76381;BMP280;65202;52.520;10.528;2023-04-03T04:21:10;102748.66;;;0.26
76381;BMP280;65202;52.520;10.528;2023-04-03T04:23:38;102736.06;;;0.80
76381;BMP280;65202;52.520;10.528;2023-04-03T04:26:05;102738.91;;;0.76
76381;BMP280;65202;52.520;10.528;2023-04-03T04:28:32;102742.91;;;0.97
76381;BMP280;65202;52.520;10.528;2023-04-03T04:30:59;102753.22;;;0.44
76381;BMP280;65202;52.520;10.528;2023-04-03T04:33:27;102755.69;;;0.30
76381;BMP280;65202;52.520;10.528;2023-04-03T04:35:54;102765.00;;;0.26
76381;BMP280;65202;52.520;10.528;2023-04-03T04:38:23;102756.56;;;0.17
76381;BMP280;65202;52.520;10.528;2023-04-03T04:40:50;102758.09;;;0.72
76381;BMP280;65202;52.520;10.528;2023-04-03T04:43:17;102762.88;;;0.08
76381;BMP280;65202;52.520;10.528;2023-04-03T04:45:44;102769.41;;;0.14
76381;BMP280;65202;52.520;10.528;2023-04-03T04:48:12;102765.84;;;-0.02
76381;BMP280;65202;52.520;10.528;2023-04-03T04:50:39;102768.50;;;-0.07
76381;BMP280;65202;52.520;10.528;2023-04-03T04:53:06;102766.22;;;-0.12
76381;BMP280;65202;52.520;10.528;2023-04-03T04:55:33;102768.88;;;0.17
76381;BMP280;65202;52.520;10.528;2023-04-03T04:58:01;102765.69;;;0.25
76381;BMP280;65202;52.520;10.528;2023-04-03T05:00:28;102778.22;;;0.26
76381;BMP280;65202;52.520;10.528;2023-04-03T05:02:55;102777.28;;;0.05
76381;BMP280;65202;52.520;10.528;2023-04-03T05:05:22;102785.41;;;0.04
76381;BMP280;65202;52.520;10.528;2023-04-03T05:07:50;102789.09;;;0.00
76381;BMP280;65202;52.520;10.528;2023-04-03T05:10:17;102788.34;;;-0.19
76381;BMP280;65202;52.520;10.528;2023-04-03T05:12:44;102792.00;;;-0.23
76381;BMP280;65202;52.520;10.528;2023-04-03T05:15:11;102790.22;;;-0.38
76381;BMP280;65202;52.520;10.528;2023-04-03T05:17:38;102788.69;;;-0.23
76381;BMP280;65202;52.520;10.528;2023-04-03T05:20:06;102801.72;;;-0.10
76381;BMP280;65202;52.520;10.528;2023-04-03T05:22:35;102791.09;;;-0.37
76381;BMP280;65202;52.520;10.528;2023-04-03T05:25:02;102803.63;;;-0.22
76381;BMP280;65202;52.520;10.528;2023-04-03T05:27:30;102797.66;;;-0.17
76381;BMP280;65202;52.520;10.528;2023-04-03T05:29:58;102801.91;;;-0.09
76381;BMP280;65202;52.520;10.528;2023-04-03T05:32:26;102803.56;;;0.25
76381;BMP280;65202;52.520;10.528;2023-04-03T05:34:54;102801.91;;;-0.09
76381;BMP280;65202;52.520;10.528;2023-04-03T05:37:21;102804.00;;;-0.12
76381;BMP280;65202;52.520;10.528;2023-04-03T05:39:49;102808.91;;;-0.19
76381;BMP280;65202;52.520;10.528;2023-04-03T05:42:16;102809.00;;;0.09
76381;BMP280;65202;52.520;10.528;2023-04-03T05:44:43;102814.09;;;0.10
76381;BMP280;65202;52.520;10.528;2023-04-03T05:47:13;102813.75;;;0.28
76381;BMP280;65202;52.520;10.528;2023-04-03T05:49:40;102821.66;;;0.88
76381;BMP280;65202;52.520;10.528;2023-04-03T05:52:23;102815.59;;;1.28
76381;BMP280;65202;52.520;10.528;2023-04-03T05:54:54;102821.53;;;1.30
76381;BMP280;65202;52.520;10.528;2023-04-03T05:57:21;102815.28;;;2.42
76381;BMP280;65202;52.520;10.528;2023-04-03T05:59:49;102820.22;;;2.87
76381;BMP280;65202;52.520;10.528;2023-04-03T06:02:19;102811.91;;;2.64
76381;BMP280;65202;52.520;10.528;2023-04-03T06:04:48;102812.31;;;2.98
76381;BMP280;65202;52.520;10.528;2023-04-03T06:07:18;102820.28;;;2.57
76381;BMP280;65202;52.520;10.528;2023-04-03T06:09:50;102811.19;;;2.87
76381;BMP280;65202;52.520;10.528;2023-04-03T06:12:18;102820.41;;;4.13
76381;BMP280;65202;52.520;10.528;2023-04-03T06:14:46;102820.59;;;4.87
76381;BMP280;65202;52.520;10.528;2023-04-03T06:17:14;102815.09;;;3.62
76381;BMP280;65202;52.520;10.528;2023-04-03T06:19:44;102813.28;;;3.37
76381;BMP280;65202;52.520;10.528;2023-04-03T06:22:11;102820.16;;;3.94
76381;BMP280;65202;52.520;10.528;2023-04-03T06:24:39;102823.34;;;3.54
76381;BMP280;65202;52.520;10.528;2023-04-03T06:27:07;102820.63;;;3.60
76381;BMP280;65202;52.520;10.528;2023-04-03T06:29:34;102821.31;;;3.98
76381;BMP280;65202;52.520;10.528;2023-04-03T06:32:01;102817.34;;;4.39
76381;BMP280;65202;52.520;10.528;2023-04-03T06:34:29;102834.47;;;4.85
76381;BMP280;65202;52.520;10.528;2023-04-03T06:36:56;102827.13;;;5.53
76381;BMP280;65202;52.520;10.528;2023-04-03T06:39:23;102827.06;;;4.29
76381;BMP280;65202;52.520;10.528;2023-04-03T06:41:51;102819.09;;;5.63
76381;BMP280;65202;52.520;10.528;2023-04-03T06:44:18;102827.13;;;5.36
76381;BMP280;65202;52.520;10.528;2023-04-03T06:46:46;102826.25;;;6.03
76381;BMP280;65202;52.520;10.528;2023-04-03T06:49:13;102830.50;;;6.12
76381;BMP280;65202;52.520;10.528;2023-04-03T06:51:41;102821.03;;;6.43
76381;BMP280;65202;52.520;10.528;2023-04-03T06:54:08;102830.34;;;5.52
76381;BMP280;65202;52.520;10.528;2023-04-03T06:56:36;102839.41;;;5.51
76381;BMP280;65202;52.520;10.528;2023-04-03T06:59:04;102840.38;;;6.29
76381;BMP280;65202;52.520;10.528;2023-04-03T07:01:31;102831.22;;;5.94
76381;BMP280;65202;52.520;10.528;2023-04-03T07:03:58;102833.72;;;6.63
76381;BMP280;65202;52.520;10.528;2023-04-03T07:06:26;102832.84;;;7.16
76381;BMP280;65202;52.520;10.528;2023-04-03T07:08:54;102852.13;;;6.22
76381;BMP280;65202;52.520;10.528;2023-04-03T07:11:22;102848.06;;;6.66
76381;BMP280;65202;52.520;10.528;2023-04-03T07:13:50;102848.78;;;6.13
76381;BMP280;65202;52.520;10.528;2023-04-03T07:16:17;102856.34;;;6.75
76381;BMP280;65202;52.520;10.528;2023-04-03T07:18:45;102849.16;;;7.31
76381;BMP280;65202;52.520;10.528;2023-04-03T07:21:13;102857.13;;;8.57
76381;BMP280;65202;52.520;10.528;2023-04-03T07:23:40;102849.28;;;8.34
76381;BMP280;65202;52.520;10.528;2023-04-03T07:26:08;102853.22;;;9.09
76381;BMP280;65202;52.520;10.528;2023-04-03T07:28:36;102843.94;;;8.88
76381;BMP280;65202;52.520;10.528;2023-04-03T07:31:09;102841.75;;;8.24
76381;BMP280;65202;52.520;10.528;2023-04-03T07:33:40;102852.03;;;7.91
76381;BMP280;65202;52.520;10.528;2023-04-03T07:36:10;102850.88;;;8.06
76381;BMP280;65202;52.520;10.528;2023-04-03T07:38:41;102856.72;;;8.15
76381;BMP280;65202;52.520;10.528;2023-04-03T07:41:13;102855.09;;;9.11
76381;BMP280;65202;52.520;10.528;2023-04-03T07:43:42;102859.81;;;9.38
76381;BMP280;65202;52.520;10.528;2023-04-03T07:46:09;102849.91;;;8.80
76381;BMP280;65202;52.520;10.528;2023-04-03T07:48:37;102856.09;;;8.55
76381;BMP280;65202;52.520;10.528;2023-04-03T07:51:05;102856.84;;;9.93
76381;BMP280;65202;52.520;10.528;2023-04-03T07:53:32;102854.63;;;10.06
76381;BMP280;65202;52.520;10.528;2023-04-03T07:56:00;102845.34;;;11.00
76381;BMP280;65202;52.520;10.528;2023-04-03T07:58:30;102826.88;;;12.47
76381;BMP280;65202;52.520;10.528;2023-04-03T08:00:57;102834.50;;;11.23
76381;BMP280;65202;52.520;10.528;2023-04-03T08:03:25;102833.75;;;10.48
76381;BMP280;65202;52.520;10.528;2023-04-03T08:05:52;102837.94;;;11.13
76381;BMP280;65202;52.520;10.528;2023-04-03T08:08:21;102840.25;;;11.10
76381;BMP280;65202;52.520;10.528;2023-04-03T08:10:51;102844.34;;;10.03
76381;BMP280;65202;52.520;10.528;2023-04-03T08:13:21;102837.16;;;11.03
76381;BMP280;65202;52.520;10.528;2023-04-03T08:15:49;102812.88;;;12.99
76381;BMP280;65202;52.520;10.528;2023-04-03T08:18:16;102827.44;;;12.67
76381;BMP280;65202;52.520;10.528;2023-04-03T08:20:45;102828.31;;;10.96
76381;BMP280;65202;52.520;10.528;2023-04-03T08:23:12;102836.13;;;10.89
76381;BMP280;65202;52.520;10.528;2023-04-03T08:25:41;102833.94;;;11.71
76381;BMP280;65202;52.520;10.528;2023-04-03T08:28:11;102821.25;;;12.26
76381;BMP280;65202;52.520;10.528;2023-04-03T08:30:40;102830.78;;;11.85
76381;BMP280;65202;52.520;10.528;2023-04-03T08:33:09;102830.63;;;11.49
76381;BMP280;65202;52.520;10.528;2023-04-03T08:35:40;102824.25;;;11.31
76381;BMP280;65202;52.520;10.528;2023-04-03T08:38:09;102831.25;;;11.02
76381;BMP280;65202;52.520;10.528;2023-04-03T08:40:38;102821.38;;;10.71
76381;BMP280;65202;52.520;10.528;2023-04-03T08:43:32;102819.03;;;12.31
76381;BMP280;65202;52.520;10.528;2023-04-03T08:46:05;102818.81;;;11.25
76381;BMP280;65202;52.520;10.528;2023-04-03T08:48:42;102796.81;;;12.72
76381;BMP280;65202;52.520;10.528;2023-04-03T08:51:19;102806.00;;;12.48
76381;BMP280;65202;52.520;10.528;2023-04-03T08:54:01;102807.81;;;13.10
76381;BMP280;65202;52.520;10.528;2023-04-03T08:56:35;102809.13;;;12.09
76381;BMP280;65202;52.520;10.528;2023-04-03T08:59:11;102799.38;;;12.97
76381;BMP280;65202;52.520;10.528;2023-04-03T09:01:53;102807.38;;;12.80
76381;BMP280;65202;52.520;10.528;2023-04-03T09:04:23;102803.25;;;13.68
76381;BMP280;65202;52.520;10.528;2023-04-03T09:06:57;102793.44;;;13.85
76381;BMP280;65202;52.520;10.528;2023-04-03T09:09:40;102815.81;;;11.75
76381;BMP280;65202;52.520;10.528;2023-04-03T09:12:25;102811.88;;;13.21
76381;BMP280;65202;52.520;10.528;2023-04-03T09:15:23;102822.16;;;11.70
76381;BMP280;65202;52.520;10.528;2023-04-03T09:18:13;102813.00;;;11.59
76381;BMP280;65202;52.520;10.528;2023-04-03T09:23:53;102786.38;;;14.05
76381;BMP280;65202;52.520;10.528;2023-04-03T09:26:56;102794.50;;;12.87
76381;BMP280;65202;52.520;10.528;2023-04-03T09:29:29;102797.03;;;13.50
76381;BMP280;65202;52.520;10.528;2023-04-03T09:32:02;102790.72;;;11.75
76381;BMP280;65202;52.520;10.528;2023-04-03T09:34:41;102798.13;;;11.85
76381;BMP280;65202;52.520;10.528;2023-04-03T09:37:11;102800.97;;;13.33
76381;BMP280;65202;52.520;10.528;2023-04-03T09:40:02;102794.19;;;10.66
76381;BMP280;65202;52.520;10.528;2023-04-03T09:42:31;102801.69;;;9.31
76381;BMP280;65202;52.520;10.528;2023-04-03T09:45:01;102800.44;;;9.36
76381;BMP280;65202;52.520;10.528;2023-04-03T09:47:32;102808.44;;;8.92
76381;BMP280;65202;52.520;10.528;2023-04-03T09:52:47;102797.81;;;8.65
76381;BMP280;65202;52.520;10.528;2023-04-03T09:55:26;102789.88;;;8.98
76381;BMP280;65202;52.520;10.528;2023-04-03T09:57:58;102772.41;;;9.91
76381;BMP280;65202;52.520;10.528;2023-04-03T10:00:34;102774.97;;;10.55
76381;BMP280;65202;52.520;10.528;2023-04-03T10:03:04;102789.47;;;9.24
76381;BMP280;65202;52.520;10.528;2023-04-03T10:05:37;102787.69;;;9.52
76381;BMP280;65202;52.520;10.528;2023-04-03T10:10:45;102771.88;;;9.63
76381;BMP280;65202;52.520;10.528;2023-04-03T10:13:18;102761.66;;;10.23
76381;BMP280;65202;52.520;10.528;2023-04-03T10:15:58;102757.06;;;10.71
76381;BMP280;65202;52.520;10.528;2023-04-03T10:18:57;102757.88;;;10.82
76381;BMP280;65202;52.520;10.528;2023-04-03T10:21:57;102753.28;;;11.43
76381;BMP280;65202;52.520;10.528;2023-04-03T10:24:36;102759.09;;;10.33
76381;BMP280;65202;52.520;10.528;2023-04-03T10:27:34;102754.91;;;9.49
76381;BMP280;65202;52.520;10.528;2023-04-03T10:30:21;102770.00;;;9.10
76381;BMP280;65202;52.520;10.528;2023-04-03T10:45:17;102745.06;;;9.51
76381;BMP280;65202;52.520;10.528;2023-04-03T10:48:16;102760.34;;;9.04
76381;BMP280;65202;52.520;10.528;2023-04-03T10:56:40;102753.97;;;9.18
76381;BMP280;65202;52.520;10.528;2023-04-03T10:59:40;102759.13;;;8.70
76381;BMP280;65202;52.520;10.528;2023-04-03T11:02:22;102741.63;;;8.79
76381;BMP280;65202;52.520;10.528;2023-04-03T11:05:00;102736.50;;;8.38
76381;BMP280;65202;52.520;10.528;2023-04-03T11:07:48;102740.34;;;8.35
76381;BMP280;65202;52.520;10.528;2023-04-03T11:10:41;102737.56;;;8.32
76381;BMP280;65202;52.520;10.528;2023-04-03T11:13:15;102731.16;;;8.15
76381;BMP280;65202;52.520;10.528;2023-04-03T11:15:46;102738.66;;;8.15
76381;BMP280;65202;52.520;10.528;2023-04-03T11:18:23;102725.34;;;9.24
76381;BMP280;65202;52.520;10.528;2023-04-03T11:21:10;102728.38;;;9.61
76381;BMP280;65202;52.520;10.528;2023-04-03T11:23:43;102719.03;;;9.80
76381;BMP280;65202;52.520;10.528;2023-04-03T11:26:21;102727.00;;;8.54
76381;BMP280;65202;52.520;10.528;2023-04-03T11:29:03;102706.78;;;9.73
76381;BMP280;65202;52.520;10.528;2023-04-03T11:34:45;102695.66;;;10.76
76381;BMP280;65202;52.520;10.528;2023-04-03T11:37:43;102698.41;;;9.51
76381;BMP280;65202;52.520;10.528;2023-04-03T11:42:46;102691.41;;;10.43
76381;BMP280;65202;52.520;10.528;2023-04-03T11:47:49;102686.78;;;10.59
76381;BMP280;65202;52.520;10.528;2023-04-03T11:50:31;102693.50;;;9.84
76381;BMP280;65202;52.520;10.528;2023-04-03T11:58:26;102673.91;;;11.55
76381;BMP280;65202;52.520;10.528;2023-04-03T12:26:47;102661.78;;;10.37
76381;BMP280;65202;52.520;10.528;2023-04-03T12:29:27;102657.44;;;10.35
76381;BMP280;65202;52.520;10.528;2023-04-03T12:35:30;102671.69;;;10.68
76381;BMP280;65202;52.520;10.528;2023-04-03T12:46:53;102662.31;;;9.28
76381;BMP280;65202;52.520;10.528;2023-04-03T12:49:35;102651.78;;;9.42
76381;BMP280;65202;52.520;10.528;2023-04-03T12:52:27;102643.47;;;10.05
76381;BMP280;65202;52.520;10.528;2023-04-03T12:55:00;102644.34;;;9.85
76381;BMP280;65202;52.520;10.528;2023-04-03T12:57:31;102635.72;;;10.24
76381;BMP280;65202;52.520;10.528;2023-04-03T12:59:59;102631.09;;;10.40
76381;BMP280;65202;52.520;10.528;2023-04-03T13:02:29;102642.50;;;9.20
76381;BMP280;65202;52.520;10.528;2023-04-03T13:05:09;102643.63;;;8.72
76381;BMP280;65202;52.520;10.528;2023-04-03T13:07:43;102642.69;;;9.85
76381;BMP280;65202;52.520;10.528;2023-04-03T13:10:16;102627.00;;;9.76
76381;BMP280;65202;52.520;10.528;2023-04-03T13:12:58;102627.22;;;9.79
76381;BMP280;65202;52.520;10.528;2023-04-03T13:15:43;102634.72;;;9.58
76381;BMP280;65202;52.520;10.528;2023-04-03T13:18:35;102637.50;;;9.20
76381;BMP280;65202;52.520;10.528;2023-04-03T13:21:22;102644.09;;;8.58
76381;BMP280;65202;52.520;10.528;2023-04-03T13:23:54;102627.56;;;9.00
76381;BMP280;65202;52.520;10.528;2023-04-03T13:26:42;102621.63;;;9.19
76381;BMP280;65202;52.520;10.528;2023-04-03T13:29:22;102623.00;;;9.68
76381;BMP280;65202;52.520;10.528;2023-04-03T13:31:59;102620.91;;;9.10
76381;BMP280;65202;52.520;10.528;2023-04-03T13:34:39;102622.22;;;9.58
76381;BMP280;65202;52.520;10.528;2023-04-03T13:37:24;102609.16;;;10.70
76381;BMP280;65202;52.520;10.528;2023-04-03T13:42:38;102612.84;;;9.55
76381;BMP280;65202;52.520;10.528;2023-04-03T13:47:41;102605.28;;;10.52
76381;BMP280;65202;52.520;10.528;2023-04-03T13:52:53;102606.72;;;9.73
76381;BMP280;65202;52.520;10.528;2023-04-03T13:55:33;102592.19;;;9.05
76381;BMP280;65202;52.520;10.528;2023-04-03T14:03:31;102594.84;;;9.49
76381;BMP280;65202;52.520;10.528;2023-04-03T14:06:13;102589.72;;;9.91
76381;BMP280;65202;52.520;10.528;2023-04-03T14:08:43;102591.09;;;9.54
76381;BMP280;65202;52.520;10.528;2023-04-03T14:11:18;102590.38;;;9.45
76381;BMP280;65202;52.520;10.528;2023-04-03T14:13:50;102570.13;;;9.21
76381;BMP280;65202;52.520;10.528;2023-04-03T14:16:21;102589.44;;;8.41
76381;BMP280;65202;52.520;10.528;2023-04-03T14:18:50;102584.09;;;8.17
76381;BMP280;65202;52.520;10.528;2023-04-03T14:21:19;102590.06;;;8.49
76381;BMP280;65202;52.520;10.528;2023-04-03T14:23:48;102583.03;;;8.75
76381;BMP280;65202;52.520;10.528;2023-04-03T14:26:19;102579.16;;;8.58
76381;BMP280;65202;52.520;10.528;2023-04-03T14:28:50;102578.03;;;9.06
76381;BMP280;65202;52.520;10.528;2023-04-03T14:31:20;102576.66;;;8.68
76381;BMP280;65202;52.520;10.528;2023-04-03T14:33:49;102578.16;;;8.76
76381;BMP280;65202;52.520;10.528;2023-04-03T14:36:27;102587.63;;;8.01
76381;BMP280;65202;52.520;10.528;2023-04-03T14:38:57;102581.84;;;8.40
76381;BMP280;65202;52.520;10.528;2023-04-03T14:41:26;102582.22;;;8.15
76381;BMP280;65202;52.520;10.528;2023-04-03T14:43:53;102572.66;;;8.01
76381;BMP280;65202;52.520;10.528;2023-04-03T14:46:28;102562.69;;;8.60
76381;BMP280;65202;52.520;10.528;2023-04-03T14:49:26;102545.50;;;8.84
76381;BMP280;65202;52.520;10.528;2023-04-03T14:51:57;102548.81;;;9.15
76381;BMP280;65202;52.520;10.528;2023-04-03T14:54:24;102544.81;;;8.76
76381;BMP280;65202;52.520;10.528;2023-04-03T14:56:55;102560.09;;;8.59
76381;BMP280;65202;52.520;10.528;2023-04-03T14:59:24;102549.22;;;8.58
76381;BMP280;65202;52.520;10.528;2023-04-03T15:01:53;102561.47;;;8.55
76381;BMP280;65202;52.520;10.528;2023-04-03T15:04:20;102559.50;;;8.21
76381;BMP280;65202;52.520;10.528;2023-04-03T15:06:48;102566.44;;;7.86
76381;BMP280;65202;52.520;10.528;2023-04-03T15:09:20;102570.31;;;7.82
76381;BMP280;65202;52.520;10.528;2023-04-03T15:11:50;102571.81;;;8.00
76381;BMP280;65202;52.520;10.528;2023-04-03T15:14:21;102564.94;;;7.88
76381;BMP280;65202;52.520;10.528;2023-04-03T15:17:10;102573.91;;;7.76
76381;BMP280;65202;52.520;10.528;2023-04-03T15:19:43;102572.22;;;8.24
76381;BMP280;65202;52.520;10.528;2023-04-03T15:22:16;102566.22;;;8.13
76381;BMP280;65202;52.520;10.528;2023-04-03T15:24:45;102550.06;;;8.78
76381;BMP280;65202;52.520;10.528;2023-04-03T15:27:13;102565.34;;;8.32
76381;BMP280;65202;52.520;10.528;2023-04-03T15:29:43;102552.94;;;9.04
76381;BMP280;65202;52.520;10.528;2023-04-03T15:32:12;102544.44;;;8.81
76381;BMP280;65202;52.520;10.528;2023-04-03T15:34:40;102563.22;;;8.46
76381;BMP280;65202;52.520;10.528;2023-04-03T15:37:07;102561.22;;;8.03
76381;BMP280;65202;52.520;10.528;2023-04-03T15:39:34;102566.91;;;7.72
76381;BMP280;65202;52.520;10.528;2023-04-03T15:42:02;102568.28;;;7.68
76381;BMP280;65202;52.520;10.528;2023-04-03T15:44:33;102564.66;;;7.65
76381;BMP280;65202;52.520;10.528;2023-04-03T15:47:01;102564.88;;;8.36
76381;BMP280;65202;52.520;10.528;2023-04-03T15:49:32;102555.63;;;8.45
76381;BMP280;65202;52.520;10.528;2023-04-03T15:51:59;102552.13;;;8.94
76381;BMP280;65202;52.520;10.528;2023-04-03T15:54:27;102559.19;;;8.58
76381;BMP280;65202;52.520;10.528;2023-04-03T15:56:56;102557.84;;;8.42
76381;BMP280;65202;52.520;10.528;2023-04-03T15:59:23;102560.00;;;8.27